Latest Weather Observations for Thevenard

IDS60801

Issued at 5:01 pm CDT Saturday 25 February 2017 (issued every 30 minutes, with the page automatically refreshed every 10 minutes)

About weather observations | Map of weather stations | Latest weather observations for SA | Other Formats
Station Details ID: 018200 Name: THEVENARD WIND Lat: -32.18 Lon: 133.63 Height: 8.54 m
Data from the previous 72 hours. | See also: Recent months for locations in South Australia
Date/Time
CDT
Temp
°C
App
Temp
°C
Dew
Point
°C
Rel
Hum
%
Delta-T
°C
Wind Press
QNH
hPa
Press
MSL
hPa
Rain since
9am
mm
Dir  Spd
km/h
Gust
km/h
Spd
kts
Gust
kts
25/05:00pm - - - - - SSE 43 50 23 27 - - -
25/04:30pm - - - - - SSE 39 46 21 25 - - -
25/04:00pm - - - - - SSE 43 50 23 27 - - -
25/03:30pm - - - - - SSE 39 48 21 26 - - -
25/03:00pm - - - - - SSE 41 46 22 25 - - -
25/02:30pm - - - - - SSE 43 48 23 26 - - -
25/02:00pm - - - - - SSE 39 44 21 24 - - -
25/01:30pm - - - - - SSE 35 43 19 23 - - -
25/01:00pm - - - - - SSE 37 43 20 23 - - -
25/12:30pm - - - - - SSE 33 41 18 22 - - -
25/12:00pm - - - - - SSE 30 37 16 20 - - -
25/11:30am - - - - - SE 32 37 17 20 - - -
25/11:00am - - - - - SE 30 39 16 21 - - -
25/10:30am - - - - - ESE 30 35 16 19 - - -
25/10:00am - - - - - SE 30 39 16 21 - - -
25/09:30am - - - - - ESE 33 43 18 23 - - -
25/09:00am - - - - - SE 35 43 19 23 - - -
25/08:30am - - - - - SE 35 44 19 24 - - -
25/08:00am - - - - - ESE 30 43 16 23 - - -
25/07:30am - - - - - ESE 28 37 15 20 - - -
25/07:00am - - - - - ESE 28 39 15 21 - - -
25/06:30am - - - - - ESE 28 39 15 21 - - -
25/06:00am - - - - - ESE 32 43 17 23 - - -
25/05:30am - - - - - ESE 30 44 16 24 - - -
25/05:00am - - - - - ESE 30 41 16 22 - - -
25/04:30am - - - - - ESE 32 46 17 25 - - -
25/04:00am - - - - - ESE 33 46 18 25 - - -
25/03:30am - - - - - ESE 32 43 17 23 - - -
25/03:00am - - - - - ESE 33 43 18 23 - - -
25/02:30am - - - - - ESE 32 44 17 24 - - -
25/02:00am - - - - - ESE 33 46 18 25 - - -
25/01:30am - - - - - ESE 33 46 18 25 - - -
25/01:00am - - - - - SE 39 46 21 25 - - -
25/12:30am - - - - - SE 39 48 21 26 - - -
25/12:00am - - - - - SE 39 50 21 27 - - -
 
Date/Time
CDT
Temp
°C
App
Temp
°C
Dew
Point
°C
Rel
Hum
%
Delta-T
°C
Wind Press
QNH
hPa
Press
MSL
hPa
Rain since
9am
mm
Dir  Spd
km/h
Gust
km/h
Spd
kts
Gust
kts
24/11:30pm - - - - - SE 43 54 23 29 - - -
24/11:00pm - - - - - SE 48 56 26 30 - - -
24/10:30pm - - - - - SE 46 56 25 30 - - -
24/10:00pm - - - - - SE 48 61 26 33 - - -
24/09:30pm - - - - - SSE 48 57 26 31 - - -
24/09:00pm - - - - - SE 46 56 25 30 - - -
24/08:30pm - - - - - SSE 46 56 25 30 - - -
24/08:00pm - - - - - SSE 52 61 28 33 - - -
24/07:30pm - - - - - SSE 48 57 26 31 - - -
24/07:00pm - - - - - SSE 50 57 27 31 - - -
24/06:30pm - - - - - SSE 46 56 25 30 - - -
24/06:00pm - - - - - SSE 46 57 25 31 - - -
24/05:30pm - - - - - SSE 44 54 24 29 - - -
24/05:00pm - - - - - SSE 43 50 23 27 - - -
24/04:30pm - - - - - SSE 43 52 23 28 - - -
24/04:00pm - - - - - SSE 41 48 22 26 - - -
24/03:30pm - - - - - SSE 41 48 22 26 - - -
24/03:00pm - - - - - SSE 41 48 22 26 - - -
24/02:30pm - - - - - SSE 39 48 21 26 - - -
24/02:00pm - - - - - SSE 37 46 20 25 - - -
24/01:30pm - - - - - SSE 37 44 20 24 - - -
24/01:00pm - - - - - SSE 33 43 18 23 - - -
24/12:30pm - - - - - SSE 28 33 15 18 - - -
24/12:00pm - - - - - SSE 30 37 16 20 - - -
24/11:30am - - - - - SE 30 37 16 20 - - -
24/11:00am - - - - - SE 24 33 13 18 - - -
24/10:30am - - - - - ESE 17 24 9 13 - - -
24/10:00am - - - - - ESE 22 30 12 16 - - -
24/09:30am - - - - - ESE 26 35 14 19 - - -
24/09:00am - - - - - ESE 24 33 13 18 - - -
24/08:30am - - - - - ESE 26 33 14 18 - - -
24/08:00am - - - - - E 22 26 12 14 - - -
24/07:30am - - - - - E 20 28 11 15 - - -
24/07:00am - - - - - SE 32 35 17 19 - - -
24/06:30am - - - - - SE 32 39 17 21 - - -
24/06:00am - - - - - SE 30 39 16 21 - - -
24/05:30am - - - - - SE 35 41 19 22 - - -
24/05:00am - - - - - SE 33 43 18 23 - - -
24/04:30am - - - - - SE 32 39 17 21 - - -
24/04:00am - - - - - SE 32 39 17 21 - - -
24/03:30am - - - - - SE 33 39 18 21 - - -
24/03:00am - - - - - SE 28 35 15 19 - - -
24/02:30am - - - - - SE 30 35 16 19 - - -
24/02:00am - - - - - SE 32 37 17 20 - - -
24/01:30am - - - - - SE 32 39 17 21 - - -
24/01:00am - - - - - SE 33 41 18 22 - - -
24/12:30am - - - - - SE 32 39 17 21 - - -
24/12:00am - - - - - SE 32 39 17 21 - - -
 
Date/Time
CDT
Temp
°C
App
Temp
°C
Dew
Point
°C
Rel
Hum
%
Delta-T
°C
Wind Press
QNH
hPa
Press
MSL
hPa
Rain since
9am
mm
Dir  Spd
km/h
Gust
km/h
Spd
kts
Gust
kts
23/11:30pm - - - - - SE 33 39 18 21 - - -
23/11:00pm - - - - - SE 32 39 17 21 - - -
23/10:30pm - - - - - SSE 32 39 17 21 - - -
23/10:00pm - - - - - SSE 32 37 17 20 - - -
23/09:30pm - - - - - SSE 30 35 16 19 - - -
23/09:00pm - - - - - SSE 26 32 14 17 - - -
23/08:30pm - - - - - SSE 28 37 15 20 - - -
23/08:00pm - - - - - SSE 28 33 15 18 - - -
23/07:30pm - - - - - SSE 28 33 15 18 - - -
23/07:00pm - - - - - SSE 26 32 14 17 - - -
23/06:30pm - - - - - SSE 28 33 15 18 - - -
23/06:00pm - - - - - SSE 26 33 14 18 - - -
23/05:30pm - - - - - SSE 28 35 15 19 - - -
23/05:00pm - - - - - SSE 30 37 16 20 - - -
23/04:30pm - - - - - SSE 28 33 15 18 - - -
23/04:00pm - - - - - SSE 28 32 15 17 - - -
23/03:30pm - - - - - SSE 28 32 15 17 - - -
23/03:00pm - - - - - SSE 26 32 14 17 - - -
23/02:30pm - - - - - SSE 22 30 12 16 - - -
23/02:00pm - - - - - SSE 20 26 11 14 - - -
23/01:30pm - - - - - SSE 19 24 10 13 - - -
23/01:00pm - - - - - SSE 19 24 10 13 - - -
23/12:30pm - - - - - SSE 17 22 9 12 - - -
23/12:00pm - - - - - SSE 19 22 10 12 - - -
23/11:30am - - - - - SSE 17 19 9 10 - - -
23/11:00am - - - - - SSE 17 20 9 11 - - -
23/10:30am - - - - - SSE 17 20 9 11 - - -
23/10:00am - - - - - SSE 19 22 10 12 - - -
23/09:30am - - - - - SSE 19 26 10 14 - - -
23/09:00am - - - - - SSE 19 22 10 12 - - -
23/08:30am - - - - - SSE 19 22 10 12 - - -
23/08:00am - - - - - SSE 20 24 11 13 - - -
23/07:30am - - - - - SSE 22 26 12 14 - - -
23/07:00am - - - - - S 20 24 11 13 - - -
23/06:30am - - - - - S 13 19 7 10 - - -
23/06:00am - - - - - S 13 15 7 8 - - -
23/05:30am - - - - - S 13 15 7 8 - - -
23/05:00am - - - - - S 13 19 7 10 - - -
23/04:30am - - - - - SSE 15 19 8 10 - - -
23/04:00am - - - - - S 17 20 9 11 - - -
23/03:30am - - - - - S 15 19 8 10 - - -
23/03:00am - - - - - S 19 20 10 11 - - -
23/02:30am - - - - - SSW 20 26 11 14 - - -
23/02:00am - - - - - SSW 20 24 11 13 - - -
23/01:30am - - - - - SSW 19 24 10 13 - - -
23/01:00am - - - - - SSW 19 22 10 12 - - -
23/12:30am - - - - - S 17 20 9 11 - - -
23/12:00am - - - - - SSW 17 22 9 12 - - -
 
Date/Time
CDT
Temp
°C
App
Temp
°C
Dew
Point
°C
Rel
Hum
%
Delta-T
°C
Wind Press
QNH
hPa
Press
MSL
hPa
Rain since
9am
mm
Dir  Spd
km/h
Gust
km/h
Spd
kts
Gust
kts
22/11:30pm - - - - - SSW 19 24 10 13 - - -
22/11:00pm - - - - - SSW 20 22 11 12 - - -
22/10:30pm - - - - - SSW 20 24 11 13 - - -
22/10:00pm - - - - - SSW 24 28 13 15 - - -
22/09:30pm - - - - - SSW 26 33 14 18 - - -
22/09:00pm - - - - - SW 24 32 13 17 - - -
22/08:30pm - - - - - SW 26 32 14 17 - - -
22/08:00pm - - - - - SW 26 33 14 18 - - -
22/07:30pm - - - - - SW 30 33 16 18 - - -
22/07:00pm - - - - - SSW 35 41 19 22 - - -
22/06:30pm - - - - - SSW 35 43 19 23 - - -
22/06:00pm - - - - - SSW 41 46 22 25 - - -
22/05:30pm - - - - - SSW 39 46 21 25 - - -

Other Formats:

Comma delimited format used in spreadsheet applications
http://www.bom.gov.au/fwo/IDS60801/IDS60801.95653.axf

JavaScript Object Notation format (JSON) in row-major order
http://www.bom.gov.au/fwo/IDS60801/IDS60801.95653.json